createdAt,value
2022-11-24T00:00:13.298Z,48.22
2022-11-24T00:01:32.286Z,46.81
2022-11-24T00:02:26.406Z,45.39
2022-11-24T00:03:20.395Z,43.50
2022-11-24T00:04:18.343Z,42.72
2022-11-24T00:05:12.352Z,42.35
2022-11-24T00:06:06.332Z,42.34
2022-11-24T00:06:54.349Z,41.81
2022-11-24T00:07:28.369Z,41.61
2022-11-24T00:08:16.273Z,42.10
2022-11-24T00:08:52.531Z,42.14
2022-11-24T00:09:39.285Z,41.60
2022-11-24T00:10:13.361Z,42.25
2022-11-24T00:11:00.310Z,41.70
2022-11-24T00:11:37.395Z,41.99
2022-11-24T00:12:17.347Z,42.51
2022-11-24T00:12:57.357Z,42.67
2022-11-24T00:13:37.291Z,41.97
2022-11-24T00:14:21.013Z,42.13
2022-11-24T00:15:01.256Z,42.15
2022-11-24T00:15:41.360Z,42.20
2022-11-24T00:16:28.394Z,42.33
2022-11-24T00:17:08.536Z,42.50
2022-11-24T00:17:48.335Z,42.50
2022-11-24T00:18:28.362Z,42.42
2022-11-24T00:19:17.032Z,42.50
2022-11-24T00:19:59.358Z,43.61
2022-11-24T00:20:39.252Z,44.58
2022-11-24T00:21:20.333Z,44.11
2022-11-24T00:22:00.247Z,43.81
2022-11-24T00:22:40.324Z,42.83
2022-11-24T00:23:20.306Z,42.97
2022-11-24T00:24:02.385Z,42.10
2022-11-24T00:24:42.285Z,42.46
2022-11-24T00:25:22.416Z,43.24
2022-11-24T00:26:09.317Z,43.09
2022-11-24T00:26:49.331Z,42.95
2022-11-24T00:27:29.274Z,42.56
2022-11-24T00:28:09.296Z,42.95
2022-11-24T00:28:51.288Z,42.95
2022-11-24T00:29:31.315Z,42.74
2022-11-24T00:30:12.300Z,42.58
2022-11-24T00:30:52.345Z,41.79
2022-11-24T00:31:51.271Z,41.40
2022-11-24T00:32:34.359Z,41.24
2022-11-24T00:33:15.305Z,41.31
2022-11-24T00:34:06.277Z,40.46
2022-11-24T00:35:01.345Z,39.42
2022-11-24T00:35:55.231Z,40.24
2022-11-24T00:36:50.260Z,40.20
2022-11-24T00:37:44.272Z,40.63
2022-11-24T00:38:39.291Z,40.28
2022-11-24T00:39:26.279Z,39.51
2022-11-24T00:40:00.308Z,39.90
2022-11-24T00:40:47.277Z,39.84
2022-11-24T00:41:21.401Z,40.15
2022-11-24T00:42:08.227Z,42.41
2022-11-24T00:42:42.567Z,45.31
2022-11-24T00:43:30.265Z,53.35
2022-11-24T00:44:04.457Z,56.11
2022-11-24T00:44:51.328Z,52.44
2022-11-24T00:45:25.311Z,49.29
2022-11-24T00:46:12.385Z,48.80
2022-11-24T00:46:46.376Z,48.89
2022-11-24T00:47:35.258Z,47.04
2022-11-24T00:48:09.310Z,45.06
2022-11-24T00:48:57.232Z,44.47
2022-11-24T00:49:31.302Z,42.88
2022-11-24T00:50:12.292Z,41.13
2022-11-24T00:51:10.311Z,40.99
2022-11-24T00:51:51.416Z,40.72
2022-11-24T00:52:31.408Z,40.45
2022-11-24T00:53:12.260Z,39.86
2022-11-24T00:53:46.285Z,40.69
2022-11-24T00:54:34.606Z,41.21
2022-11-24T00:55:09.127Z,40.54
2022-11-24T00:55:50.267Z,39.84
2022-11-24T00:56:24.573Z,39.79
2022-11-24T00:56:57.933Z,40.63
2022-11-24T00:57:41.250Z,39.72
2022-11-24T00:58:15.341Z,39.51
2022-11-24T00:58:48.996Z,39.24
2022-11-24T00:59:29.235Z,39.72
2022-11-24T01:00:03.341Z,40.08
2022-11-24T01:00:36.917Z,39.96
2022-11-24T01:01:24.327Z,40.05
2022-11-24T01:01:58.561Z,40.86
2022-11-24T01:02:33.075Z,40.42
2022-11-24T01:03:14.243Z,40.15
2022-11-24T01:03:49.362Z,40.08
2022-11-24T01:04:22.951Z,40.41
2022-11-24T01:05:03.233Z,40.69
2022-11-24T01:05:37.287Z,41.95
2022-11-24T01:06:20.816Z,41.38
2022-11-24T01:07:01.288Z,41.25
2022-11-24T01:07:35.745Z,40.65
2022-11-24T01:08:10.169Z,40.08
2022-11-24T01:08:58.274Z,40.41
2022-11-24T01:09:32.299Z,40.39
2022-11-24T01:10:19.235Z,39.81
2022-11-24T01:10:53.331Z,40.09
2022-11-24T01:12:01.279Z,42.01
2022-11-24T01:12:35.448Z,42.40
2022-11-24T01:13:22.269Z,40.09
2022-11-24T01:14:02.596Z,40.35
2022-11-24T01:14:49.221Z,40.50
2022-11-24T01:15:23.344Z,40.66
2022-11-24T01:16:10.257Z,40.30
2022-11-24T01:16:44.264Z,40.29
2022-11-24T01:17:24.232Z,41.44
2022-11-24T01:18:04.279Z,41.34
2022-11-24T01:18:44.231Z,41.76
2022-11-24T01:19:24.327Z,41.86
2022-11-24T01:20:04.189Z,41.45
2022-11-24T01:20:44.265Z,41.09
2022-11-24T01:21:25.180Z,40.88
2022-11-24T01:22:05.266Z,40.55
2022-11-24T01:22:46.229Z,39.46
2022-11-24T01:23:26.346Z,38.91
2022-11-24T01:24:07.231Z,38.56
2022-11-24T01:24:47.315Z,39.30
2022-11-24T01:25:28.237Z,39.19
2022-11-24T01:26:13.372Z,38.56
2022-11-24T01:26:53.231Z,38.40
2022-11-24T01:27:33.232Z,38.61
2022-11-24T01:28:13.226Z,39.40
2022-11-24T01:28:54.419Z,39.34
2022-11-24T01:29:35.205Z,39.38
2022-11-24T01:30:16.316Z,40.75
2022-11-24T01:31:12.289Z,41.06
2022-11-24T01:31:52.271Z,40.31
2022-11-24T01:32:32.321Z,40.65
2022-11-24T01:33:20.293Z,40.86
2022-11-24T01:34:14.216Z,40.94
2022-11-24T01:35:08.234Z,40.74
2022-11-24T01:36:02.248Z,40.39
2022-11-24T01:36:56.201Z,41.31
2022-11-24T01:37:50.198Z,41.61
2022-11-24T01:38:37.247Z,41.92
2022-11-24T01:39:11.279Z,41.53
2022-11-24T01:39:58.182Z,41.66
2022-11-24T01:40:32.223Z,41.58
2022-11-24T01:41:31.260Z,41.94
2022-11-24T01:42:08.273Z,41.11
2022-11-24T01:42:58.194Z,41.09
2022-11-24T01:43:32.244Z,41.30
2022-11-24T01:44:34.385Z,41.10
2022-11-24T01:45:43.071Z,42.63
2022-11-24T01:46:51.177Z,43.28
2022-11-24T01:47:46.463Z,43.70
2022-11-24T01:48:36.289Z,43.72
2022-11-24T01:49:20.715Z,43.13
2022-11-24T01:50:04.203Z,42.16
2022-11-24T01:50:44.277Z,42.72
2022-11-24T01:51:29.196Z,43.03
2022-11-24T01:52:44.203Z,43.15
2022-11-24T01:53:24.173Z,43.42
2022-11-24T01:54:40.365Z,41.92
2022-11-24T01:55:25.220Z,41.86
2022-11-24T01:56:05.351Z,42.50
2022-11-24T01:56:48.180Z,43.69
2022-11-24T01:57:36.342Z,44.60
2022-11-24T01:58:25.151Z,43.97
2022-11-24T01:59:09.214Z,43.91
2022-11-24T01:59:53.169Z,44.01
2022-11-24T02:00:40.210Z,43.61
2022-11-24T02:01:35.233Z,42.75
2022-11-24T02:02:29.253Z,42.46
2022-11-24T02:03:27.183Z,42.97
2022-11-24T02:04:26.155Z,43.10
2022-11-24T02:05:27.192Z,43.11
2022-11-24T02:06:25.164Z,43.33
2022-11-24T02:07:07.307Z,42.88
2022-11-24T02:07:47.208Z,43.15
2022-11-24T02:08:57.247Z,42.04
2022-11-24T02:09:52.166Z,43.11
2022-11-24T02:10:32.225Z,43.64
2022-11-24T02:11:13.160Z,43.92
2022-11-24T02:11:54.203Z,43.80
2022-11-24T02:12:30.215Z,42.63
2022-11-24T02:13:17.145Z,44.00
2022-11-24T02:13:51.208Z,45.53
2022-11-24T02:14:38.166Z,46.22
2022-11-24T02:15:13.216Z,47.00
2022-11-24T02:16:01.265Z,46.03
2022-11-24T02:16:36.274Z,45.49
2022-11-24T02:17:17.211Z,45.30
2022-11-24T02:17:57.286Z,45.20
2022-11-24T02:18:37.164Z,45.85
2022-11-24T02:19:46.207Z,45.54
2022-11-24T02:20:27.331Z,44.60
2022-11-24T02:21:07.205Z,45.33
2022-11-24T02:21:47.160Z,44.90
2022-11-24T02:22:48.196Z,45.17
2022-11-24T02:24:06.134Z,45.44
2022-11-24T02:25:17.168Z,44.66
2022-11-24T02:26:15.150Z,44.65
2022-11-24T02:27:09.157Z,44.94
2022-11-24T02:28:03.168Z,45.66
2022-11-24T02:28:57.145Z,45.33
2022-11-24T02:29:52.273Z,45.13
2022-11-24T02:30:46.205Z,45.45
2022-11-24T02:31:40.157Z,45.42
2022-11-24T02:32:34.116Z,45.22
2022-11-24T02:33:22.176Z,45.10
2022-11-24T02:33:57.201Z,45.65
2022-11-24T02:34:44.132Z,46.24
2022-11-24T02:35:19.180Z,45.30
2022-11-24T02:36:06.128Z,44.60
2022-11-24T02:36:40.296Z,44.25
2022-11-24T02:37:27.121Z,43.42
2022-11-24T02:38:01.250Z,43.58
2022-11-24T02:38:42.140Z,44.26
2022-11-24T02:39:36.144Z,44.34
2022-11-24T02:40:34.155Z,44.66
2022-11-24T02:41:33.126Z,45.14
2022-11-24T02:42:28.129Z,44.56
2022-11-24T02:43:27.147Z,45.81
2022-11-24T02:44:08.142Z,46.05
2022-11-24T02:44:55.198Z,45.35
2022-11-24T02:45:38.102Z,45.44
2022-11-24T02:46:18.366Z,44.80
2022-11-24T02:47:13.162Z,44.33
2022-11-24T02:47:54.229Z,45.08
2022-11-24T02:48:35.138Z,45.67
2022-11-24T02:49:23.173Z,44.99
2022-11-24T02:50:18.296Z,45.24
2022-11-24T02:51:12.099Z,44.40
2022-11-24T02:52:06.126Z,44.19
2022-11-24T02:53:00.121Z,44.95
2022-11-24T02:53:54.125Z,45.15
2022-11-24T02:54:41.158Z,46.05
2022-11-24T02:55:15.180Z,47.03
2022-11-24T02:56:02.119Z,46.13
2022-11-24T02:56:36.164Z,46.13
2022-11-24T02:57:23.102Z,46.67
2022-11-24T02:57:58.393Z,46.49
2022-11-24T02:58:46.341Z,47.28
2022-11-24T02:59:20.192Z,46.89
2022-11-24T03:00:00.156Z,47.53
2022-11-24T03:00:40.187Z,46.94
2022-11-24T03:01:20.160Z,46.54
2022-11-24T03:02:00.258Z,47.60
2022-11-24T03:02:40.115Z,47.42
2022-11-24T03:03:20.125Z,47.80
2022-11-24T03:04:01.104Z,47.26
2022-11-24T03:04:41.131Z,47.39
2022-11-24T03:05:22.112Z,47.72
2022-11-24T03:06:02.217Z,47.91
2022-11-24T03:06:42.112Z,48.34
2022-11-24T03:07:23.096Z,48.76
2022-11-24T03:08:04.106Z,49.60
2022-11-24T03:08:44.225Z,48.70
2022-11-24T03:09:25.102Z,47.67
2022-11-24T03:10:05.231Z,48.29
2022-11-24T03:10:46.126Z,49.25
2022-11-24T03:11:26.178Z,49.61
2022-11-24T03:12:06.102Z,48.30
2022-11-24T03:12:46.138Z,48.01
2022-11-24T03:13:27.094Z,48.46
2022-11-24T03:14:07.170Z,48.74
2022-11-24T03:14:47.132Z,48.92
2022-11-24T03:15:27.199Z,49.69
2022-11-24T03:16:07.175Z,49.61
2022-11-24T03:16:47.359Z,49.83
2022-11-24T03:17:27.092Z,51.56
2022-11-24T03:18:07.144Z,49.65
2022-11-24T03:18:47.099Z,50.14
2022-11-24T03:19:27.604Z,51.04
2022-11-24T03:20:09.199Z,50.94
2022-11-24T03:20:49.710Z,50.30
2022-11-24T03:21:31.129Z,50.56
2022-11-24T03:22:11.138Z,49.96
2022-11-24T03:22:52.069Z,49.95
2022-11-24T03:23:32.125Z,49.99
2022-11-24T03:24:13.100Z,49.96
2022-11-24T03:24:53.306Z,49.97
2022-11-24T03:25:33.111Z,50.08
2022-11-24T03:26:16.201Z,50.90
2022-11-24T03:26:56.137Z,50.64
2022-11-24T03:27:38.139Z,50.04
2022-11-24T03:28:18.114Z,51.08
2022-11-24T03:29:02.503Z,50.64
2022-11-24T03:29:42.085Z,50.85
2022-11-24T03:30:23.165Z,51.70
2022-11-24T03:31:03.138Z,51.90
2022-11-24T03:31:43.321Z,51.55
2022-11-24T03:32:24.111Z,52.30
2022-11-24T03:33:05.016Z,51.99
2022-11-24T03:33:46.100Z,51.76
2022-11-24T03:34:26.232Z,51.30
2022-11-24T03:35:07.067Z,51.86
2022-11-24T03:35:47.140Z,51.40
2022-11-24T03:36:28.056Z,51.78
2022-11-24T03:37:08.095Z,52.00
2022-11-24T03:37:48.108Z,51.90
2022-11-24T03:38:28.142Z,51.76
2022-11-24T03:39:08.094Z,52.63
2022-11-24T03:39:48.198Z,53.51
2022-11-24T03:40:28.068Z,53.15
2022-11-24T03:41:08.134Z,52.42
2022-11-24T03:41:49.084Z,52.67
2022-11-24T03:42:29.148Z,53.24
2022-11-24T03:43:10.057Z,52.75
2022-11-24T03:43:50.183Z,53.89
2022-11-24T03:44:31.280Z,53.49
2022-11-24T03:46:14.095Z,53.14
2022-11-24T03:46:54.167Z,52.60
2022-11-24T03:47:34.087Z,53.19
2022-11-24T03:48:22.127Z,52.96
2022-11-24T03:49:16.078Z,52.89
2022-11-24T03:50:10.064Z,53.20
2022-11-24T03:51:13.044Z,54.04
2022-11-24T03:52:08.400Z,54.75
2022-11-24T03:53:02.079Z,55.28
2022-11-24T03:53:42.062Z,54.11
2022-11-24T03:54:22.153Z,54.11
2022-11-24T03:55:02.082Z,54.69
2022-11-24T03:55:43.072Z,54.55
2022-11-24T03:56:23.081Z,54.03
2022-11-24T03:57:03.144Z,54.92
2022-11-24T03:57:43.037Z,56.31
2022-11-24T03:58:23.133Z,55.06
2022-11-24T03:59:03.080Z,54.44
2022-11-24T03:59:43.136Z,55.21
2022-11-24T04:00:24.080Z,56.30
2022-11-24T04:01:04.116Z,54.64
2022-11-24T04:01:44.099Z,55.13
2022-11-24T04:02:24.171Z,55.53
2022-11-24T04:03:04.115Z,56.89
2022-11-24T04:03:44.196Z,56.19
2022-11-24T04:04:24.083Z,56.46
2022-11-24T04:05:04.120Z,55.65
2022-11-24T04:05:45.048Z,55.83
2022-11-24T04:06:25.178Z,57.05
2022-11-24T04:07:05.028Z,55.67
2022-11-24T04:07:45.107Z,56.50
2022-11-24T04:08:26.047Z,56.76
2022-11-24T04:09:07.087Z,55.56
2022-11-24T04:09:47.066Z,54.91
2022-11-24T04:10:27.091Z,54.55
2022-11-24T04:11:07.065Z,55.10
2022-11-24T04:12:16.173Z,56.22
2022-11-24T04:12:57.052Z,54.72
2022-11-24T04:13:37.122Z,53.78
2022-11-24T04:14:18.042Z,54.38
2022-11-24T04:15:05.038Z,53.76
2022-11-24T04:15:59.188Z,53.63
2022-11-24T04:16:53.059Z,52.33
2022-11-24T04:17:47.076Z,53.58
2022-11-24T04:18:41.051Z,53.36
2022-11-24T04:19:35.054Z,53.79
2022-11-24T04:20:23.108Z,54.38
2022-11-24T04:20:58.128Z,53.76
2022-11-24T04:21:46.016Z,54.04
2022-11-24T04:22:20.208Z,54.35
2022-11-24T04:23:07.017Z,53.58
2022-11-24T04:23:41.051Z,53.64
2022-11-24T04:24:28.117Z,53.41
2022-11-24T04:25:02.253Z,52.40
2022-11-24T04:25:43.044Z,54.11
2022-11-24T04:26:24.078Z,53.38
2022-11-24T04:27:04.099Z,53.49
2022-11-24T04:27:45.378Z,53.36
2022-11-24T04:28:26.023Z,52.88
2022-11-24T04:29:06.079Z,53.08
2022-11-24T04:29:47.020Z,53.71
2022-11-24T04:30:29.088Z,52.11
2022-11-24T04:31:11.121Z,50.83
2022-11-24T04:31:51.145Z,51.33
2022-11-24T04:32:31.994Z,51.67
2022-11-24T04:33:12.352Z,52.86
2022-11-24T04:33:52.000Z,52.83
2022-11-24T04:34:32.359Z,52.72
2022-11-24T04:35:15.013Z,52.69
2022-11-24T04:35:55.056Z,53.49
2022-11-24T04:36:36.011Z,52.72
2022-11-24T04:37:16.053Z,53.14
2022-11-24T04:37:57.015Z,52.76
2022-11-24T04:39:23.848Z,53.56
2022-11-24T04:39:37.002Z,53.53
2022-11-24T04:40:18.100Z,52.88
2022-11-24T04:40:58.034Z,53.28
2022-11-24T04:41:45.019Z,53.28
2022-11-24T04:42:39.004Z,52.97
2022-11-24T04:43:36.441Z,52.19
2022-11-24T04:44:34.360Z,52.06
2022-11-24T04:45:28.040Z,53.24
2022-11-24T04:46:25.065Z,53.29
2022-11-24T04:47:06.028Z,52.81
2022-11-24T04:47:46.044Z,52.24
2022-11-24T04:48:25.995Z,52.80
2022-11-24T04:49:06.120Z,53.19
2022-11-24T04:49:46.008Z,53.05
2022-11-24T04:50:26.259Z,52.89
2022-11-24T04:51:06.024Z,52.41
2022-11-24T04:51:47.020Z,52.78
2022-11-24T04:52:30.009Z,51.90
2022-11-24T04:53:11.117Z,52.50
2022-11-24T04:53:50.998Z,52.71
2022-11-24T04:54:31.220Z,52.65
2022-11-24T04:55:12.067Z,52.08
2022-11-24T04:55:52.143Z,53.24
2022-11-24T04:56:33.000Z,52.89
2022-11-24T04:57:13.308Z,52.15
2022-11-24T04:57:54.095Z,52.16
2022-11-24T04:58:48.047Z,51.99
2022-11-24T04:59:41.997Z,52.78
2022-11-24T05:00:36.004Z,53.08
2022-11-24T05:01:30.056Z,53.28
2022-11-24T05:02:23.999Z,53.33
2022-11-24T05:03:12.015Z,53.01
2022-11-24T05:03:46.134Z,52.95
2022-11-24T05:04:33.363Z,53.31
2022-11-24T05:05:08.228Z,53.71
2022-11-24T05:05:56.036Z,54.09
2022-11-24T05:06:30.146Z,56.13
2022-11-24T05:07:22.017Z,58.83
2022-11-24T05:07:56.057Z,59.05
2022-11-24T05:08:36.087Z,58.25
2022-11-24T05:09:22.030Z,57.60
2022-11-24T05:10:21.004Z,55.94
2022-11-24T05:11:02.061Z,55.42
2022-11-24T05:11:41.977Z,55.86
2022-11-24T05:12:22.119Z,56.58
2022-11-24T05:13:03.980Z,56.94
2022-11-24T05:13:50.984Z,57.69
2022-11-24T05:14:45.161Z,56.15
2022-11-24T05:15:39.956Z,55.78
2022-11-24T05:16:34.053Z,56.13
2022-11-24T05:17:28.082Z,55.05
2022-11-24T05:18:26.057Z,54.01
2022-11-24T05:19:13.092Z,53.76
2022-11-24T05:19:47.149Z,54.19
2022-11-24T05:20:33.948Z,53.33
2022-11-24T05:21:08.075Z,53.58
2022-11-24T05:21:54.987Z,53.60
2022-11-24T05:22:29.080Z,53.54
2022-11-24T05:23:15.983Z,54.53
2022-11-24T05:23:50.013Z,53.78
2022-11-24T05:24:37.062Z,52.67
2022-11-24T05:25:18.242Z,52.85
2022-11-24T05:25:58.965Z,54.33
2022-11-24T05:26:39.123Z,52.84
2022-11-24T05:27:18.944Z,53.55
2022-11-24T05:28:00.155Z,53.10
2022-11-24T05:28:39.967Z,53.28
2022-11-24T05:29:20.035Z,52.11
2022-11-24T05:30:00.996Z,52.40
2022-11-24T05:30:41.057Z,53.01
2022-11-24T05:31:20.985Z,53.44
2022-11-24T05:32:01.068Z,53.74
2022-11-24T05:32:40.941Z,54.51
2022-11-24T05:33:23.044Z,53.60
2022-11-24T05:34:02.912Z,53.14
2022-11-24T05:34:44.017Z,52.72
2022-11-24T05:35:24.976Z,53.74
2022-11-24T05:36:31.771Z,52.85
2022-11-24T05:37:11.971Z,53.24
2022-11-24T05:37:52.060Z,54.84
2022-11-24T05:38:32.952Z,55.95
2022-11-24T05:39:14.007Z,57.11
2022-11-24T05:39:53.995Z,56.41
2022-11-24T05:40:41.999Z,55.53
2022-11-24T05:41:15.948Z,54.90
2022-11-24T05:42:02.992Z,55.03
2022-11-24T05:42:47.225Z,55.64
2022-11-24T05:43:34.944Z,55.45
2022-11-24T05:44:08.644Z,55.14
2022-11-24T05:44:55.972Z,53.95
2022-11-24T05:45:30.091Z,53.04
2022-11-24T05:46:09.960Z,52.46
2022-11-24T05:46:44.010Z,53.21
2022-11-24T05:47:18.712Z,53.49
2022-11-24T05:47:59.957Z,53.05
2022-11-24T05:48:34.011Z,54.03
2022-11-24T05:49:07.719Z,54.95
2022-11-24T05:49:48.932Z,55.19
2022-11-24T05:50:26.055Z,54.79
2022-11-24T05:50:59.813Z,54.63
2022-11-24T05:51:40.959Z,54.00
2022-11-24T05:52:14.947Z,53.46
2022-11-24T05:52:49.677Z,53.46
2022-11-24T05:53:30.908Z,53.22
2022-11-24T05:54:05.113Z,52.21
2022-11-24T05:54:38.871Z,52.49
2022-11-24T05:55:21.933Z,52.24
2022-11-24T05:55:55.980Z,52.47
2022-11-24T05:56:30.607Z,52.75
2022-11-24T05:57:10.943Z,53.89
2022-11-24T05:57:45.080Z,55.36
2022-11-24T05:58:19.761Z,54.90
2022-11-24T05:59:00.927Z,55.30
2022-11-24T05:59:37.026Z,55.41
2022-11-24T06:00:11.516Z,55.24
2022-11-24T06:00:51.917Z,55.81
2022-11-24T06:01:25.976Z,55.20
2022-11-24T06:02:00.058Z,55.88
2022-11-24T06:02:41.140Z,55.71
2022-11-24T06:03:17.195Z,54.67
2022-11-24T06:03:51.004Z,55.29
2022-11-24T06:04:32.252Z,55.94
2022-11-24T06:05:07.059Z,56.74
2022-11-24T06:05:40.830Z,56.24
2022-11-24T06:06:20.901Z,55.69
2022-11-24T06:06:55.029Z,56.10
2022-11-24T06:07:29.768Z,56.61
2022-11-24T06:08:11.039Z,56.63
2022-11-24T06:08:44.976Z,56.90
2022-11-24T06:09:18.612Z,57.61
2022-11-24T06:09:58.915Z,58.04
2022-11-24T06:10:32.999Z,58.11
2022-11-24T06:11:18.779Z,58.44
2022-11-24T06:11:59.956Z,58.33
2022-11-24T06:12:33.961Z,58.05
2022-11-24T06:13:08.698Z,58.91
2022-11-24T06:13:51.965Z,58.67
2022-11-24T06:14:25.983Z,59.09
2022-11-24T06:14:59.706Z,58.78
2022-11-24T06:15:43.944Z,59.51
2022-11-24T06:16:19.194Z,59.72
2022-11-24T06:16:53.807Z,59.35
2022-11-24T06:17:34.972Z,59.50
2022-11-24T06:18:08.950Z,60.55
2022-11-24T06:18:43.041Z,60.95
2022-11-24T06:19:23.978Z,60.24
2022-11-24T06:19:58.001Z,59.91
2022-11-24T06:20:33.019Z,59.54
2022-11-24T06:21:13.948Z,58.80
2022-11-24T06:21:48.475Z,59.21
2022-11-24T06:22:22.994Z,60.22
2022-11-24T06:23:06.900Z,60.03
2022-11-24T06:23:41.173Z,60.36
2022-11-24T06:24:14.766Z,60.80
2022-11-24T06:24:56.968Z,59.15
2022-11-24T06:25:30.985Z,60.33
2022-11-24T06:26:05.055Z,61.42
2022-11-24T06:26:44.907Z,60.17
2022-11-24T06:27:20.124Z,58.84
2022-11-24T06:27:53.629Z,59.25
2022-11-24T06:28:34.934Z,59.97
2022-11-24T06:29:09.028Z,60.10
2022-11-24T06:29:55.896Z,59.90
2022-11-24T06:30:36.880Z,59.90
2022-11-24T06:31:30.913Z,58.61
2022-11-24T06:32:24.883Z,57.86
2022-11-24T06:33:19.888Z,58.75
2022-11-24T06:34:13.894Z,59.01
2022-11-24T06:35:07.942Z,59.74
2022-11-24T06:36:02.918Z,60.29
2022-11-24T06:36:56.908Z,59.45
2022-11-24T06:37:50.946Z,59.75
2022-11-24T06:38:45.999Z,59.21
2022-11-24T06:39:39.941Z,58.97
2022-11-24T06:40:26.879Z,58.42
2022-11-24T06:41:26.938Z,57.86
2022-11-24T06:42:13.888Z,58.76
2022-11-24T06:42:47.939Z,59.86
2022-11-24T06:43:36.876Z,60.05
2022-11-24T06:44:11.963Z,60.44
2022-11-24T06:44:58.906Z,61.55
2022-11-24T06:45:39.905Z,61.14
2022-11-24T06:46:34.899Z,62.78
2022-11-24T06:47:28.906Z,63.72
2022-11-24T06:48:22.882Z,65.55
2022-11-24T06:49:16.899Z,64.74
2022-11-24T06:50:10.902Z,61.36
2022-11-24T06:50:57.891Z,60.79
2022-11-24T06:51:31.952Z,61.94
2022-11-24T06:52:18.856Z,62.85
2022-11-24T06:52:52.892Z,61.16
2022-11-24T06:53:45.892Z,61.06
2022-11-24T06:54:24.940Z,61.29
2022-11-24T06:55:12.878Z,60.85
2022-11-24T06:55:46.962Z,61.06
2022-11-24T06:56:27.872Z,61.84
2022-11-24T06:57:07.933Z,60.69
2022-11-24T06:57:48.841Z,60.71
2022-11-24T06:58:28.920Z,60.81
2022-11-24T06:59:09.862Z,61.17
2022-11-24T06:59:49.874Z,61.28
2022-11-24T07:00:30.858Z,60.45
2022-11-24T07:01:10.954Z,60.64
2022-11-24T07:01:51.892Z,59.76
2022-11-24T07:02:32.954Z,59.92
2022-11-24T07:03:12.883Z,59.99
2022-11-24T07:04:08.865Z,60.47
2022-11-24T07:05:02.888Z,60.56
2022-11-24T07:05:56.838Z,60.33
2022-11-24T07:06:50.948Z,61.01
2022-11-24T07:07:31.933Z,61.40
2022-11-24T07:08:17.436Z,60.50
2022-11-24T07:08:58.867Z,60.03
2022-11-24T07:09:38.886Z,59.86
2022-11-24T07:10:18.841Z,59.47
2022-11-24T07:10:58.920Z,60.03
2022-11-24T07:11:38.935Z,59.01
2022-11-24T07:12:19.871Z,59.20
2022-11-24T07:12:53.949Z,59.65
2022-11-24T07:13:40.853Z,59.20
2022-11-24T07:14:14.933Z,60.33
2022-11-24T07:15:01.861Z,60.13
2022-11-24T07:15:35.912Z,59.97
2022-11-24T07:16:28.901Z,60.19
2022-11-24T07:17:04.665Z,58.81
2022-11-24T07:17:45.931Z,59.49
2022-11-24T07:18:25.902Z,59.46
2022-11-24T07:19:06.810Z,60.07
2022-11-24T07:19:46.895Z,59.66
2022-11-24T07:20:26.847Z,59.81
2022-11-24T07:21:10.931Z,60.38
2022-11-24T07:21:51.880Z,59.63
2022-11-24T07:22:31.864Z,59.84
2022-11-24T07:23:12.862Z,60.96
2022-11-24T07:23:56.919Z,61.97
2022-11-24T07:24:37.178Z,62.99
2022-11-24T07:25:17.877Z,62.53
2022-11-24T07:26:03.710Z,62.06
2022-11-24T07:26:46.984Z,62.55
2022-11-24T07:27:26.829Z,63.06
2022-11-24T07:28:06.915Z,63.39
2022-11-24T07:28:47.868Z,65.20
2022-11-24T07:29:27.878Z,63.13
2022-11-24T07:30:08.820Z,61.03
2022-11-24T07:30:48.867Z,61.69
2022-11-24T07:31:32.904Z,63.47
2022-11-24T07:32:12.966Z,63.19
2022-11-24T07:32:52.869Z,62.44
2022-11-24T07:33:32.880Z,62.47
2022-11-24T07:34:12.852Z,61.60
2022-11-24T07:34:53.209Z,62.91
2022-11-24T07:35:33.844Z,62.58
2022-11-24T07:36:15.867Z,60.67
2022-11-24T07:36:56.838Z,62.14
2022-11-24T07:37:36.879Z,62.42
2022-11-24T07:38:16.862Z,63.36
2022-11-24T07:38:56.888Z,60.55
2022-11-24T07:39:37.888Z,61.33
2022-11-24T07:40:18.955Z,61.26
2022-11-24T07:40:58.814Z,61.46
2022-11-24T07:41:38.909Z,61.58
2022-11-24T07:42:18.808Z,62.40
2022-11-24T07:42:59.855Z,62.66
2022-11-24T07:43:41.848Z,62.39
2022-11-24T07:44:22.862Z,60.89
2022-11-24T07:45:02.851Z,60.05
2022-11-24T07:45:56.873Z,60.14
2022-11-24T07:46:50.837Z,60.39
2022-11-24T07:47:44.865Z,58.14
2022-11-24T07:48:38.879Z,59.15
2022-11-24T07:49:33.813Z,60.28
2022-11-24T07:50:20.824Z,60.53
2022-11-24T07:50:56.292Z,59.53
2022-11-24T07:51:43.823Z,60.86
2022-11-24T07:52:17.869Z,60.03
2022-11-24T07:53:09.800Z,58.34
2022-11-24T07:53:44.931Z,58.75
2022-11-24T07:54:32.035Z,58.58
2022-11-24T07:55:05.933Z,57.39
2022-11-24T07:55:45.811Z,58.31
2022-11-24T07:56:25.831Z,59.64
2022-11-24T07:57:05.798Z,59.46
2022-11-24T07:57:45.850Z,59.51
2022-11-24T07:58:31.891Z,58.49
2022-11-24T07:59:12.863Z,58.47
2022-11-24T07:59:52.825Z,58.06
2022-11-24T08:00:33.978Z,58.99
2022-11-24T08:01:23.842Z,57.74
2022-11-24T08:02:04.927Z,57.01
2022-11-24T08:02:45.890Z,55.11
2022-11-24T08:03:25.929Z,53.60
2022-11-24T08:04:07.823Z,54.59
2022-11-24T08:04:47.799Z,54.76
2022-11-24T08:05:28.807Z,53.58
2022-11-24T08:06:28.618Z,52.95
2022-11-24T08:07:09.844Z,53.69
2022-11-24T08:07:49.944Z,54.38
2022-11-24T08:08:30.776Z,53.99
2022-11-24T08:09:11.824Z,54.20
2022-11-24T08:09:51.865Z,55.19
2022-11-24T08:10:31.903Z,55.05
2022-11-24T08:11:14.789Z,55.56
2022-11-24T08:11:55.012Z,55.83
2022-11-24T08:12:34.819Z,55.78
2022-11-24T08:13:14.865Z,55.14
2022-11-24T08:13:55.782Z,55.78
2022-11-24T08:14:36.145Z,55.43
2022-11-24T08:15:17.810Z,55.29
2022-11-24T08:15:57.860Z,54.59
2022-11-24T08:16:38.835Z,54.86
2022-11-24T08:17:18.927Z,54.78
2022-11-24T08:17:58.792Z,53.49
2022-11-24T08:18:39.886Z,53.46
2022-11-24T08:19:19.823Z,55.56
2022-11-24T08:19:59.827Z,56.16
2022-11-24T08:20:39.817Z,55.35
2022-11-24T08:21:20.905Z,54.60
2022-11-24T08:22:00.781Z,54.22
2022-11-24T08:22:40.800Z,54.78
2022-11-24T08:23:21.792Z,54.69
2022-11-24T08:24:02.844Z,55.53
2022-11-24T08:24:43.882Z,55.04
2022-11-24T08:25:25.367Z,54.54
2022-11-24T08:26:11.760Z,55.44
2022-11-24T08:26:51.936Z,56.84
2022-11-24T08:27:31.823Z,57.33
2022-11-24T08:28:12.943Z,56.72
2022-11-24T08:28:54.815Z,56.66
2022-11-24T08:29:36.823Z,56.60
2022-11-24T08:30:17.788Z,56.80
2022-11-24T08:30:57.981Z,56.10
2022-11-24T08:31:42.832Z,53.72
2022-11-24T08:32:23.953Z,52.70
2022-11-24T08:33:07.888Z,53.75
2022-11-24T08:33:48.888Z,54.74
2022-11-24T08:34:30.871Z,54.76
2022-11-24T08:35:15.199Z,52.84
2022-11-24T08:35:54.785Z,52.89
2022-11-24T08:36:35.058Z,52.21
2022-11-24T08:37:15.836Z,51.90
2022-11-24T08:37:59.212Z,52.31
2022-11-24T08:38:43.885Z,52.38
2022-11-24T08:39:23.844Z,51.95
2022-11-24T08:40:04.844Z,52.97
2022-11-24T08:40:44.983Z,53.09
2022-11-24T08:41:24.819Z,52.60
2022-11-24T08:42:05.871Z,52.81
2022-11-24T08:42:46.753Z,52.28
2022-11-24T08:43:27.179Z,51.53
2022-11-24T08:44:06.750Z,52.01
2022-11-24T08:44:46.823Z,52.66
2022-11-24T08:45:30.558Z,53.08
2022-11-24T08:46:21.031Z,52.42
2022-11-24T08:47:02.799Z,51.01
2022-11-24T08:47:42.800Z,51.49
2022-11-24T08:48:22.766Z,51.34
2022-11-24T08:49:02.858Z,50.29
2022-11-24T08:49:42.796Z,51.29
2022-11-24T08:50:23.904Z,52.19
2022-11-24T08:51:04.930Z,52.47
2022-11-24T08:51:48.552Z,51.78
2022-11-24T08:52:29.817Z,51.21
2022-11-24T08:53:09.973Z,51.90
2022-11-24T08:53:50.791Z,53.30
2022-11-24T08:54:32.019Z,51.91
2022-11-24T08:55:11.745Z,51.51
2022-11-24T08:55:51.768Z,51.39
2022-11-24T08:56:34.781Z,52.13
2022-11-24T08:57:20.234Z,55.01
2022-11-24T08:58:01.755Z,55.75
2022-11-24T08:58:41.951Z,56.99
2022-11-24T08:59:21.806Z,57.06
2022-11-24T09:00:01.773Z,57.56
2022-11-24T09:00:41.755Z,56.58
2022-11-24T09:01:55.850Z,55.11
2022-11-24T09:02:36.886Z,53.97
2022-11-24T09:03:18.779Z,54.35
2022-11-24T09:04:00.344Z,55.25
2022-11-24T09:04:40.753Z,54.28
2022-11-24T09:05:50.246Z,53.51
2022-11-24T09:06:21.737Z,54.70
2022-11-24T09:07:08.784Z,54.76
2022-11-24T09:07:42.450Z,54.31
2022-11-24T09:08:29.738Z,53.15
2022-11-24T09:09:03.483Z,53.63
2022-11-24T09:09:50.704Z,53.20
2022-11-24T09:10:24.421Z,53.38
2022-11-24T09:11:19.747Z,54.50
2022-11-24T09:11:53.847Z,54.80
2022-11-24T09:12:34.749Z,54.41
2022-11-24T09:13:08.803Z,54.22
2022-11-24T09:13:42.880Z,54.53
2022-11-24T09:14:22.717Z,53.78